Terminal Aerodrome Forecast
Issued by NWS Lake Charles, LA

Home | Current Version | Previous Version | Text Only | Print | Product List | Glossary On
Versions: 1 2 3 4 5 6 7 8 9 10 11 12 13 14 15 16 17
554
FTUS44 KLCH 291120
TAFAEX
TAF
KAEX 291120Z 2912/3012 15018G24KT P6SM VCSH OVC025
     FM291600 15023G30KT P6SM VCSH SCT025 OVC035
     FM300600 15018G26KT P6SM VCTS OVC015CB
      TEMPO 3009/3011 1SM +TSRA=

USA.gov is the U.S. government's official web portal to all federal, state and local government web resources and services.